sensor_id;sensor_type;location;lat;lon;timestamp;P1;durP1;ratioP1;P2;durP2;ratioP2
19253;SDS011;9761;50.926;5.330;2022-09-17T06:30:51;14.10;;;3.00;;
19253;SDS011;9761;50.926;5.330;2022-09-17T06:33:20;13.13;;;2.67;;
19253;SDS011;9761;50.926;5.330;2022-09-17T06:35:54;5.97;;;2.17;;
19253;SDS011;9761;50.926;5.330;2022-09-17T06:38:21;9.33;;;2.97;;
19253;SDS011;9761;50.926;5.330;2022-09-17T06:40:49;11.43;;;2.67;;
19253;SDS011;9761;50.926;5.330;2022-09-17T06:43:16;11.87;;;2.57;;
19253;SDS011;9761;50.926;5.330;2022-09-17T06:45:43;13.27;;;2.67;;
19253;SDS011;9761;50.926;5.330;2022-09-17T06:48:16;12.53;;;2.40;;
19253;SDS011;9761;50.926;5.330;2022-09-17T06:50:44;10.07;;;2.90;;
19253;SDS011;9761;50.926;5.330;2022-09-17T06:53:12;11.27;;;3.17;;
19253;SDS011;9761;50.926;5.330;2022-09-17T06:55:39;13.37;;;2.53;;
19253;SDS011;9761;50.926;5.330;2022-09-17T06:58:07;15.43;;;3.20;;
19253;SDS011;9761;50.926;5.330;2022-09-17T07:00:35;8.70;;;2.23;;
19253;SDS011;9761;50.926;5.330;2022-09-17T07:03:02;11.53;;;2.30;;
19253;SDS011;9761;50.926;5.330;2022-09-17T07:05:29;15.10;;;2.70;;
19253;SDS011;9761;50.926;5.330;2022-09-17T07:07:59;12.27;;;2.70;;
19253;SDS011;9761;50.926;5.330;2022-09-17T07:10:29;11.43;;;2.70;;
19253;SDS011;9761;50.926;5.330;2022-09-17T07:12:56;13.63;;;2.97;;
19253;SDS011;9761;50.926;5.330;2022-09-17T07:15:24;7.73;;;2.67;;
19253;SDS011;9761;50.926;5.330;2022-09-17T07:17:51;8.93;;;2.50;;
19253;SDS011;9761;50.926;5.330;2022-09-17T07:20:18;9.20;;;2.47;;
19253;SDS011;9761;50.926;5.330;2022-09-17T07:22:53;9.17;;;2.97;;
19253;SDS011;9761;50.926;5.330;2022-09-17T07:25:21;9.47;;;2.53;;
19253;SDS011;9761;50.926;5.330;2022-09-17T07:28:04;8.47;;;2.30;;
19253;SDS011;9761;50.926;5.330;2022-09-17T07:33:45;9.80;;;2.60;;
19253;SDS011;9761;50.926;5.330;2022-09-17T07:42:58;9.73;;;1.87;;
19253;SDS011;9761;50.926;5.330;2022-09-17T07:45:26;9.23;;;2.00;;
19253;SDS011;9761;50.926;5.330;2022-09-17T07:47:55;9.10;;;2.17;;
19253;SDS011;9761;50.926;5.330;2022-09-17T07:50:22;5.67;;;1.77;;
19253;SDS011;9761;50.926;5.330;2022-09-17T07:52:49;6.67;;;1.70;;
19253;SDS011;9761;50.926;5.330;2022-09-17T07:55:16;7.03;;;1.47;;
19253;SDS011;9761;50.926;5.330;2022-09-17T07:57:43;4.87;;;1.83;;
19253;SDS011;9761;50.926;5.330;2022-09-17T08:00:19;7.87;;;1.97;;
19253;SDS011;9761;50.926;5.330;2022-09-17T08:02:51;9.77;;;1.80;;
19253;SDS011;9761;50.926;5.330;2022-09-17T08:05:18;9.60;;;1.83;;
19253;SDS011;9761;50.926;5.330;2022-09-17T08:07:48;7.50;;;1.70;;
19253;SDS011;9761;50.926;5.330;2022-09-17T08:10:15;5.87;;;1.90;;
19253;SDS011;9761;50.926;5.330;2022-09-17T08:12:45;7.80;;;1.87;;
19253;SDS011;9761;50.926;5.330;2022-09-17T08:15:12;6.70;;;1.63;;
19253;SDS011;9761;50.926;5.330;2022-09-17T08:17:42;5.57;;;1.57;;
19253;SDS011;9761;50.926;5.330;2022-09-17T08:20:10;7.97;;;1.90;;
19253;SDS011;9761;50.926;5.330;2022-09-17T08:22:37;6.63;;;1.70;;
19253;SDS011;9761;50.926;5.330;2022-09-17T08:25:04;8.60;;;1.70;;
19253;SDS011;9761;50.926;5.330;2022-09-17T08:27:32;5.07;;;1.67;;
19253;SDS011;9761;50.926;5.330;2022-09-17T08:29:59;5.63;;;1.43;;
19253;SDS011;9761;50.926;5.330;2022-09-17T08:32:28;5.33;;;1.40;;
19253;SDS011;9761;50.926;5.330;2022-09-17T08:34:56;5.10;;;1.67;;
19253;SDS011;9761;50.926;5.330;2022-09-17T08:37:24;8.27;;;1.50;;
19253;SDS011;9761;50.926;5.330;2022-09-17T08:39:53;8.27;;;1.93;;
19253;SDS011;9761;50.926;5.330;2022-09-17T08:42:23;9.33;;;1.73;;
19253;SDS011;9761;50.926;5.330;2022-09-17T08:44:56;8.03;;;1.77;;
19253;SDS011;9761;50.926;5.330;2022-09-17T08:47:28;6.67;;;1.20;;
19253;SDS011;9761;50.926;5.330;2022-09-17T08:50:02;7.00;;;1.77;;
19253;SDS011;9761;50.926;5.330;2022-09-17T08:52:46;7.40;;;2.03;;
19253;SDS011;9761;50.926;5.330;2022-09-17T08:55:36;5.03;;;1.57;;
19253;SDS011;9761;50.926;5.330;2022-09-17T08:58:21;6.10;;;1.50;;
19253;SDS011;9761;50.926;5.330;2022-09-17T09:01:06;6.67;;;1.73;;
19253;SDS011;9761;50.926;5.330;2022-09-17T09:03:43;6.80;;;1.43;;
19253;SDS011;9761;50.926;5.330;2022-09-17T09:11:22;12.23;;;2.30;;
19253;SDS011;9761;50.926;5.330;2022-09-17T09:13:53;4.50;;;1.60;;
19253;SDS011;9761;50.926;5.330;2022-09-17T09:16:24;5.00;;;1.80;;
19253;SDS011;9761;50.926;5.330;2022-09-17T09:18:54;5.47;;;1.47;;
19253;SDS011;9761;50.926;5.330;2022-09-17T09:21:26;4.65;;;1.30;;
19253;SDS011;9761;50.926;5.330;2022-09-17T09:23:54;5.87;;;1.60;;
19253;SDS011;9761;50.926;5.330;2022-09-17T09:26:32;4.90;;;1.50;;
19253;SDS011;9761;50.926;5.330;2022-09-17T09:29:09;6.60;;;1.50;;
19253;SDS011;9761;50.926;5.330;2022-09-17T09:34:34;6.53;;;1.40;;
19253;SDS011;9761;50.926;5.330;2022-09-17T09:37:09;12.63;;;1.60;;
19253;SDS011;9761;50.926;5.330;2022-09-17T09:39:41;11.20;;;1.80;;
19253;SDS011;9761;50.926;5.330;2022-09-17T09:42:10;8.47;;;1.93;;
19253;SDS011;9761;50.926;5.330;2022-09-17T09:44:49;7.37;;;1.60;;
19253;SDS011;9761;50.926;5.330;2022-09-17T09:47:23;4.50;;;1.23;;
19253;SDS011;9761;50.926;5.330;2022-09-17T09:50:05;7.17;;;1.50;;
19253;SDS011;9761;50.926;5.330;2022-09-17T09:52:58;4.63;;;1.20;;
19253;SDS011;9761;50.926;5.330;2022-09-17T09:55:39;4.67;;;1.50;;
19253;SDS011;9761;50.926;5.330;2022-09-17T09:58:20;4.95;;;1.80;;
19253;SDS011;9761;50.926;5.330;2022-09-17T10:00:54;4.23;;;1.40;;
19253;SDS011;9761;50.926;5.330;2022-09-17T10:03:22;3.43;;;1.30;;
19253;SDS011;9761;50.926;5.330;2022-09-17T10:05:55;3.90;;;1.00;;
19253;SDS011;9761;50.926;5.330;2022-09-17T10:08:24;5.10;;;1.30;;
19253;SDS011;9761;50.926;5.330;2022-09-17T10:10:56;4.77;;;1.30;;
19253;SDS011;9761;50.926;5.330;2022-09-17T10:13:25;5.67;;;1.70;;
19253;SDS011;9761;50.926;5.330;2022-09-17T10:15:54;4.97;;;1.53;;
19253;SDS011;9761;50.926;5.330;2022-09-17T10:18:22;6.23;;;1.47;;
19253;SDS011;9761;50.926;5.330;2022-09-17T10:20:51;9.17;;;2.10;;
19253;SDS011;9761;50.926;5.330;2022-09-17T10:23:20;5.53;;;1.33;;
19253;SDS011;9761;50.926;5.330;2022-09-17T10:25:50;4.27;;;1.50;;
19253;SDS011;9761;50.926;5.330;2022-09-17T10:28:22;9.37;;;1.80;;
19253;SDS011;9761;50.926;5.330;2022-09-17T10:34:02;9.20;;;2.23;;
19253;SDS011;9761;50.926;5.330;2022-09-17T10:36:37;5.20;;;1.67;;
19253;SDS011;9761;50.926;5.330;2022-09-17T10:41:59;10.67;;;2.00;;
19253;SDS011;9761;50.926;5.330;2022-09-17T10:44:28;6.00;;;1.93;;
19253;SDS011;9761;50.926;5.330;2022-09-17T10:47:05;4.43;;;1.87;;
19253;SDS011;9761;50.926;5.330;2022-09-17T10:49:38;3.67;;;1.90;;
19253;SDS011;9761;50.926;5.330;2022-09-17T10:52:09;7.10;;;1.73;;
19253;SDS011;9761;50.926;5.330;2022-09-17T10:54:47;5.70;;;1.70;;
19253;SDS011;9761;50.926;5.330;2022-09-17T11:00:46;6.53;;;1.73;;
19253;SDS011;9761;50.926;5.330;2022-09-17T11:03:36;3.13;;;1.37;;
19253;SDS011;9761;50.926;5.330;2022-09-17T11:06:19;6.50;;;1.77;;
19253;SDS011;9761;50.926;5.330;2022-09-17T11:09:06;7.57;;;1.80;;
19253;SDS011;9761;50.926;5.330;2022-09-17T11:11:46;6.37;;;1.83;;
19253;SDS011;9761;50.926;5.330;2022-09-17T11:14:27;10.13;;;1.97;;
19253;SDS011;9761;50.926;5.330;2022-09-17T11:17:10;6.67;;;1.40;;
19253;SDS011;9761;50.926;5.330;2022-09-17T11:19:45;5.07;;;1.50;;
19253;SDS011;9761;50.926;5.330;2022-09-17T11:22:26;3.93;;;1.33;;
19253;SDS011;9761;50.926;5.330;2022-09-17T11:25:08;2.90;;;1.20;;
19253;SDS011;9761;50.926;5.330;2022-09-17T11:27:49;5.63;;;1.27;;
19253;SDS011;9761;50.926;5.330;2022-09-17T11:30:38;3.70;;;1.13;;
19253;SDS011;9761;50.926;5.330;2022-09-17T11:33:26;8.43;;;1.03;;
19253;SDS011;9761;50.926;5.330;2022-09-17T11:36:09;6.23;;;1.20;;
19253;SDS011;9761;50.926;5.330;2022-09-17T11:38:40;3.43;;;0.83;;
19253;SDS011;9761;50.926;5.330;2022-09-17T11:41:13;4.47;;;0.80;;
19253;SDS011;9761;50.926;5.330;2022-09-17T11:43:46;5.43;;;1.00;;
19253;SDS011;9761;50.926;5.330;2022-09-17T11:46:20;3.83;;;1.00;;
19253;SDS011;9761;50.926;5.330;2022-09-17T11:48:51;2.83;;;0.73;;
19253;SDS011;9761;50.926;5.330;2022-09-17T11:51:27;2.50;;;0.67;;
19253;SDS011;9761;50.926;5.330;2022-09-17T11:53:58;5.07;;;0.63;;
19253;SDS011;9761;50.926;5.330;2022-09-17T11:56:32;4.23;;;0.80;;
19253;SDS011;9761;50.926;5.330;2022-09-17T11:59:03;2.67;;;0.80;;
19253;SDS011;9761;50.926;5.330;2022-09-17T12:01:39;3.27;;;0.70;;
19253;SDS011;9761;50.926;5.330;2022-09-17T12:04:16;1.90;;;0.70;;
19253;SDS011;9761;50.926;5.330;2022-09-17T12:06:55;1.63;;;0.70;;
19253;SDS011;9761;50.926;5.330;2022-09-17T12:09:28;1.87;;;0.70;;
19253;SDS011;9761;50.926;5.330;2022-09-17T12:11:59;3.37;;;0.70;;
19253;SDS011;9761;50.926;5.330;2022-09-17T12:14:35;1.50;;;0.63;;
19253;SDS011;9761;50.926;5.330;2022-09-17T12:17:12;4.20;;;1.00;;
19253;SDS011;9761;50.926;5.330;2022-09-17T12:19:47;3.83;;;0.70;;
19253;SDS011;9761;50.926;5.330;2022-09-17T12:22:17;1.63;;;0.60;;
19253;SDS011;9761;50.926;5.330;2022-09-17T12:24:48;5.03;;;0.70;;
19253;SDS011;9761;50.926;5.330;2022-09-17T12:27:17;1.73;;;1.10;;
19253;SDS011;9761;50.926;5.330;2022-09-17T12:30:06;2.27;;;0.70;;
19253;SDS011;9761;50.926;5.330;2022-09-17T12:38:57;1.67;;;0.87;;
19253;SDS011;9761;50.926;5.330;2022-09-17T12:41:45;1.27;;;0.63;;
19253;SDS011;9761;50.926;5.330;2022-09-17T12:44:24;4.40;;;0.80;;
19253;SDS011;9761;50.926;5.330;2022-09-17T12:47:12;1.60;;;0.70;;
19253;SDS011;9761;50.926;5.330;2022-09-17T12:50:12;3.77;;;1.03;;
19253;SDS011;9761;50.926;5.330;2022-09-17T12:52:49;2.97;;;1.03;;
19253;SDS011;9761;50.926;5.330;2022-09-17T12:55:39;2.20;;;0.93;;
19253;SDS011;9761;50.926;5.330;2022-09-17T12:58:22;5.27;;;1.07;;
19253;SDS011;9761;50.926;5.330;2022-09-17T13:01:00;4.50;;;0.90;;
19253;SDS011;9761;50.926;5.330;2022-09-17T13:03:33;3.27;;;1.07;;
19253;SDS011;9761;50.926;5.330;2022-09-17T13:06:16;3.23;;;1.23;;
19253;SDS011;9761;50.926;5.330;2022-09-17T13:09:11;3.50;;;1.10;;
19253;SDS011;9761;50.926;5.330;2022-09-17T13:12:00;3.23;;;1.00;;
19253;SDS011;9761;50.926;5.330;2022-09-17T13:17:30;6.77;;;1.10;;
19253;SDS011;9761;50.926;5.330;2022-09-17T13:20:04;3.97;;;1.00;;
19253;SDS011;9761;50.926;5.330;2022-09-17T13:26:00;4.67;;;1.20;;
19253;SDS011;9761;50.926;5.330;2022-09-17T13:28:38;5.67;;;1.00;;
19253;SDS011;9761;50.926;5.330;2022-09-17T13:31:06;3.70;;;1.20;;
19253;SDS011;9761;50.926;5.330;2022-09-17T13:33:52;4.17;;;1.57;;
19253;SDS011;9761;50.926;5.330;2022-09-17T13:36:37;6.67;;;1.20;;
19253;SDS011;9761;50.926;5.330;2022-09-17T13:42:14;4.03;;;1.13;;
19253;SDS011;9761;50.926;5.330;2022-09-17T13:44:45;6.77;;;1.67;;
19253;SDS011;9761;50.926;5.330;2022-09-17T13:47:23;3.77;;;1.20;;
19253;SDS011;9761;50.926;5.330;2022-09-17T13:49:54;4.03;;;1.30;;
19253;SDS011;9761;50.926;5.330;2022-09-17T13:55:30;5.20;;;1.37;;
19253;SDS011;9761;50.926;5.330;2022-09-17T13:58:02;6.97;;;1.83;;
19253;SDS011;9761;50.926;5.330;2022-09-17T14:00:52;3.80;;;1.23;;
19253;SDS011;9761;50.926;5.330;2022-09-17T14:09:28;6.47;;;1.20;;
19253;SDS011;9761;50.926;5.330;2022-09-17T14:11:58;2.80;;;1.00;;
19253;SDS011;9761;50.926;5.330;2022-09-17T14:14:46;5.50;;;1.30;;
19253;SDS011;9761;50.926;5.330;2022-09-17T14:20:16;5.43;;;1.90;;
19253;SDS011;9761;50.926;5.330;2022-09-17T14:22:53;7.07;;;1.90;;
19253;SDS011;9761;50.926;5.330;2022-09-17T14:25:23;6.03;;;1.80;;
19253;SDS011;9761;50.926;5.330;2022-09-17T14:27:58;4.73;;;1.43;;
19253;SDS011;9761;50.926;5.330;2022-09-17T14:30:29;8.33;;;2.00;;
19253;SDS011;9761;50.926;5.330;2022-09-17T14:33:00;4.83;;;1.40;;
19253;SDS011;9761;50.926;5.330;2022-09-17T14:35:32;5.73;;;1.90;;
19253;SDS011;9761;50.926;5.330;2022-09-17T14:38:04;6.77;;;1.77;;
19253;SDS011;9761;50.926;5.330;2022-09-17T14:40:40;7.97;;;1.70;;
19253;SDS011;9761;50.926;5.330;2022-09-17T14:43:14;5.60;;;1.10;;
19253;SDS011;9761;50.926;5.330;2022-09-17T14:45:47;8.30;;;1.60;;
19253;SDS011;9761;50.926;5.330;2022-09-17T14:48:27;6.33;;;2.50;;
19253;SDS011;9761;50.926;5.330;2022-09-17T14:54:05;7.97;;;1.47;;
19253;SDS011;9761;50.926;5.330;2022-09-17T14:56:44;12.80;;;2.03;;
19253;SDS011;9761;50.926;5.330;2022-09-17T14:59:21;4.73;;;1.47;;
19253;SDS011;9761;50.926;5.330;2022-09-17T15:01:57;5.43;;;1.37;;
19253;SDS011;9761;50.926;5.330;2022-09-17T15:04:25;4.67;;;1.50;;
19253;SDS011;9761;50.926;5.330;2022-09-17T15:07:05;7.93;;;1.43;;
19253;SDS011;9761;50.926;5.330;2022-09-17T15:09:32;3.53;;;1.10;;
19253;SDS011;9761;50.926;5.330;2022-09-17T15:12:00;6.93;;;1.70;;
19253;SDS011;9761;50.926;5.330;2022-09-17T15:14:29;3.40;;;1.20;;
19253;SDS011;9761;50.926;5.330;2022-09-17T15:17:00;6.17;;;1.40;;
19253;SDS011;9761;50.926;5.330;2022-09-17T15:19:30;4.37;;;1.30;;
19253;SDS011;9761;50.926;5.330;2022-09-17T15:22:03;3.57;;;1.53;;
19253;SDS011;9761;50.926;5.330;2022-09-17T15:24:36;6.67;;;1.70;;
19253;SDS011;9761;50.926;5.330;2022-09-17T15:27:09;8.03;;;1.20;;
19253;SDS011;9761;50.926;5.330;2022-09-17T15:29:39;4.07;;;1.13;;
19253;SDS011;9761;50.926;5.330;2022-09-17T15:32:11;3.37;;;1.30;;
19253;SDS011;9761;50.926;5.330;2022-09-17T15:34:39;13.47;;;1.93;;
19253;SDS011;9761;50.926;5.330;2022-09-17T15:37:16;3.73;;;1.33;;
19253;SDS011;9761;50.926;5.330;2022-09-17T15:39:46;7.00;;;1.33;;
19253;SDS011;9761;50.926;5.330;2022-09-17T15:42:16;7.57;;;1.37;;
19253;SDS011;9761;50.926;5.330;2022-09-17T15:44:45;4.10;;;1.47;;
19253;SDS011;9761;50.926;5.330;2022-09-17T15:50:19;3.77;;;1.33;;
19253;SDS011;9761;50.926;5.330;2022-09-17T15:52:48;4.60;;;1.20;;
19253;SDS011;9761;50.926;5.330;2022-09-17T15:55:29;4.83;;;1.40;;
19253;SDS011;9761;50.926;5.330;2022-09-17T15:58:02;3.23;;;1.10;;
19253;SDS011;9761;50.926;5.330;2022-09-17T16:00:42;8.33;;;1.60;;
19253;SDS011;9761;50.926;5.330;2022-09-17T16:12:09;7.37;;;1.67;;
19253;SDS011;9761;50.926;5.330;2022-09-17T16:14:46;4.80;;;1.20;;
19253;SDS011;9761;50.926;5.330;2022-09-17T16:20:04;3.23;;;1.40;;
19253;SDS011;9761;50.926;5.330;2022-09-17T16:22:34;3.53;;;1.40;;
19253;SDS011;9761;50.926;5.330;2022-09-17T16:25:04;7.90;;;1.63;;
19253;SDS011;9761;50.926;5.330;2022-09-17T16:27:33;3.27;;;1.27;;
19253;SDS011;9761;50.926;5.330;2022-09-17T16:30:05;5.27;;;1.60;;
19253;SDS011;9761;50.926;5.330;2022-09-17T16:32:34;5.37;;;1.60;;
19253;SDS011;9761;50.926;5.330;2022-09-17T16:35:01;4.60;;;1.60;;
19253;SDS011;9761;50.926;5.330;2022-09-17T16:37:29;4.77;;;1.50;;
19253;SDS011;9761;50.926;5.330;2022-09-17T16:39:57;8.97;;;2.20;;
19253;SDS011;9761;50.926;5.330;2022-09-17T16:42:24;5.47;;;1.70;;
19253;SDS011;9761;50.926;5.330;2022-09-17T16:44:55;6.37;;;1.80;;
19253;SDS011;9761;50.926;5.330;2022-09-17T16:47:22;5.33;;;2.23;;
19253;SDS011;9761;50.926;5.330;2022-09-17T16:49:50;4.37;;;1.70;;
19253;SDS011;9761;50.926;5.330;2022-09-17T16:52:19;7.77;;;1.40;;
19253;SDS011;9761;50.926;5.330;2022-09-17T16:54:46;8.53;;;1.90;;
19253;SDS011;9761;50.926;5.330;2022-09-17T16:57:16;6.07;;;1.70;;
19253;SDS011;9761;50.926;5.330;2022-09-17T16:59:43;4.90;;;2.00;;
19253;SDS011;9761;50.926;5.330;2022-09-17T17:02:10;9.97;;;2.10;;
19253;SDS011;9761;50.926;5.330;2022-09-17T17:04:37;7.63;;;1.47;;
19253;SDS011;9761;50.926;5.330;2022-09-17T17:07:04;9.27;;;1.93;;
19253;SDS011;9761;50.926;5.330;2022-09-17T17:09:32;9.57;;;1.77;;
19253;SDS011;9761;50.926;5.330;2022-09-17T17:11:59;6.77;;;1.70;;
19253;SDS011;9761;50.926;5.330;2022-09-17T17:14:27;8.20;;;1.60;;
19253;SDS011;9761;50.926;5.330;2022-09-17T17:16:55;8.17;;;1.90;;
19253;SDS011;9761;50.926;5.330;2022-09-17T17:19:21;8.70;;;1.90;;
19253;SDS011;9761;50.926;5.330;2022-09-17T17:21:50;7.53;;;1.50;;
19253;SDS011;9761;50.926;5.330;2022-09-17T17:24:18;7.33;;;1.60;;
19253;SDS011;9761;50.926;5.330;2022-09-17T17:26:45;6.20;;;1.73;;
19253;SDS011;9761;50.926;5.330;2022-09-17T17:29:12;4.83;;;1.40;;
19253;SDS011;9761;50.926;5.330;2022-09-17T17:31:42;12.30;;;2.17;;
19253;SDS011;9761;50.926;5.330;2022-09-17T17:34:09;6.37;;;2.30;;
19253;SDS011;9761;50.926;5.330;2022-09-17T17:36:36;5.17;;;1.30;;
19253;SDS011;9761;50.926;5.330;2022-09-17T17:39:05;3.07;;;1.60;;
19253;SDS011;9761;50.926;5.330;2022-09-17T17:41:33;10.77;;;1.80;;
19253;SDS011;9761;50.926;5.330;2022-09-17T17:44:00;7.53;;;2.43;;
19253;SDS011;9761;50.926;5.330;2022-09-17T17:46:28;7.00;;;1.70;;
19253;SDS011;9761;50.926;5.330;2022-09-17T17:48:56;8.10;;;1.70;;
19253;SDS011;9761;50.926;5.330;2022-09-17T17:51:23;7.73;;;1.90;;
19253;SDS011;9761;50.926;5.330;2022-09-17T17:53:54;5.37;;;1.63;;
19253;SDS011;9761;50.926;5.330;2022-09-17T17:56:22;6.37;;;2.10;;
19253;SDS011;9761;50.926;5.330;2022-09-17T17:58:52;6.57;;;1.63;;
19253;SDS011;9761;50.926;5.330;2022-09-17T18:01:21;7.57;;;1.90;;
19253;SDS011;9761;50.926;5.330;2022-09-17T18:03:54;5.10;;;1.60;;
19253;SDS011;9761;50.926;5.330;2022-09-17T18:06:23;7.57;;;1.97;;
19253;SDS011;9761;50.926;5.330;2022-09-17T18:08:51;13.17;;;2.77;;
19253;SDS011;9761;50.926;5.330;2022-09-17T18:11:19;6.03;;;1.70;;
19253;SDS011;9761;50.926;5.330;2022-09-17T18:13:49;9.70;;;2.10;;
19253;SDS011;9761;50.926;5.330;2022-09-17T18:16:18;5.60;;;1.33;;
19253;SDS011;9761;50.926;5.330;2022-09-17T18:18:45;6.27;;;2.00;;
19253;SDS011;9761;50.926;5.330;2022-09-17T18:21:14;7.90;;;2.20;;
19253;SDS011;9761;50.926;5.330;2022-09-17T18:23:43;7.27;;;2.00;;
19253;SDS011;9761;50.926;5.330;2022-09-17T18:26:11;5.80;;;2.10;;
19253;SDS011;9761;50.926;5.330;2022-09-17T18:28:40;6.40;;;2.03;;
19253;SDS011;9761;50.926;5.330;2022-09-17T18:31:08;7.13;;;2.03;;
19253;SDS011;9761;50.926;5.330;2022-09-17T18:33:41;7.03;;;1.83;;
19253;SDS011;9761;50.926;5.330;2022-09-17T18:36:09;7.80;;;2.03;;
19253;SDS011;9761;50.926;5.330;2022-09-17T18:38:37;8.43;;;2.00;;
19253;SDS011;9761;50.926;5.330;2022-09-17T18:41:05;8.37;;;1.67;;
19253;SDS011;9761;50.926;5.330;2022-09-17T18:43:34;8.03;;;2.07;;
19253;SDS011;9761;50.926;5.330;2022-09-17T18:46:03;6.33;;;1.97;;
19253;SDS011;9761;50.926;5.330;2022-09-17T18:48:30;6.27;;;1.93;;
19253;SDS011;9761;50.926;5.330;2022-09-17T18:50:59;10.13;;;2.67;;
19253;SDS011;9761;50.926;5.330;2022-09-17T18:53:32;10.90;;;2.27;;
19253;SDS011;9761;50.926;5.330;2022-09-17T18:56:03;6.47;;;1.97;;
19253;SDS011;9761;50.926;5.330;2022-09-17T18:58:33;10.43;;;2.30;;
19253;SDS011;9761;50.926;5.330;2022-09-17T19:01:03;10.17;;;3.13;;
19253;SDS011;9761;50.926;5.330;2022-09-17T19:03:33;10.43;;;3.10;;
19253;SDS011;9761;50.926;5.330;2022-09-17T19:06:01;13.23;;;3.00;;
19253;SDS011;9761;50.926;5.330;2022-09-17T19:08:29;11.33;;;3.20;;
19253;SDS011;9761;50.926;5.330;2022-09-17T19:10:56;8.77;;;2.63;;
19253;SDS011;9761;50.926;5.330;2022-09-17T19:13:26;10.70;;;2.83;;
19253;SDS011;9761;50.926;5.330;2022-09-17T19:15:58;9.93;;;3.17;;
19253;SDS011;9761;50.926;5.330;2022-09-17T19:18:26;11.33;;;3.30;;
19253;SDS011;9761;50.926;5.330;2022-09-17T19:20:57;11.47;;;3.10;;
19253;SDS011;9761;50.926;5.330;2022-09-17T19:23:27;10.47;;;2.63;;
19253;SDS011;9761;50.926;5.330;2022-09-17T19:26:03;11.67;;;3.30;;
19253;SDS011;9761;50.926;5.330;2022-09-17T19:28:34;11.63;;;2.57;;
19253;SDS011;9761;50.926;5.330;2022-09-17T19:31:02;6.90;;;2.17;;
19253;SDS011;9761;50.926;5.330;2022-09-17T19:33:30;11.80;;;2.20;;
19253;SDS011;9761;50.926;5.330;2022-09-17T19:35:57;5.30;;;2.07;;
19253;SDS011;9761;50.926;5.330;2022-09-17T19:38:25;10.60;;;2.73;;
19253;SDS011;9761;50.926;5.330;2022-09-17T19:40:56;8.23;;;2.17;;
19253;SDS011;9761;50.926;5.330;2022-09-17T19:43:24;8.20;;;2.20;;
19253;SDS011;9761;50.926;5.330;2022-09-17T19:46:00;8.53;;;2.00;;
19253;SDS011;9761;50.926;5.330;2022-09-17T19:48:28;9.10;;;2.47;;
19253;SDS011;9761;50.926;5.330;2022-09-17T19:51:00;4.23;;;1.73;;
19253;SDS011;9761;50.926;5.330;2022-09-17T19:53:28;8.73;;;2.57;;
19253;SDS011;9761;50.926;5.330;2022-09-17T19:55:55;4.77;;;1.90;;
19253;SDS011;9761;50.926;5.330;2022-09-17T19:58:22;7.07;;;2.00;;
19253;SDS011;9761;50.926;5.330;2022-09-17T20:00:53;9.77;;;2.63;;
19253;SDS011;9761;50.926;5.330;2022-09-17T20:03:22;8.67;;;2.37;;
19253;SDS011;9761;50.926;5.330;2022-09-17T20:05:56;8.20;;;2.27;;
19253;SDS011;9761;50.926;5.330;2022-09-17T20:08:27;7.80;;;2.17;;
19253;SDS011;9761;50.926;5.330;2022-09-17T20:10:55;4.53;;;2.10;;
19253;SDS011;9761;50.926;5.330;2022-09-17T20:13:29;9.30;;;2.33;;
19253;SDS011;9761;50.926;5.330;2022-09-17T20:16:01;7.73;;;2.10;;
19253;SDS011;9761;50.926;5.330;2022-09-17T20:18:30;6.27;;;2.23;;
19253;SDS011;9761;50.926;5.330;2022-09-17T20:20:59;6.30;;;2.10;;
19253;SDS011;9761;50.926;5.330;2022-09-17T20:23:31;9.20;;;2.77;;
19253;SDS011;9761;50.926;5.330;2022-09-17T20:25:58;8.13;;;2.50;;
19253;SDS011;9761;50.926;5.330;2022-09-17T20:28:26;7.40;;;2.20;;
19253;SDS011;9761;50.926;5.330;2022-09-17T20:30:58;9.13;;;2.67;;
19253;SDS011;9761;50.926;5.330;2022-09-17T20:33:26;8.57;;;2.90;;
19253;SDS011;9761;50.926;5.330;2022-09-17T20:35:57;9.20;;;3.30;;
19253;SDS011;9761;50.926;5.330;2022-09-17T20:38:24;7.90;;;3.13;;
19253;SDS011;9761;50.926;5.330;2022-09-17T20:40:52;7.90;;;2.97;;
19253;SDS011;9761;50.926;5.330;2022-09-17T20:43:19;11.97;;;2.70;;
19253;SDS011;9761;50.926;5.330;2022-09-17T20:45:52;11.17;;;3.43;;
19253;SDS011;9761;50.926;5.330;2022-09-17T20:48:20;9.73;;;3.10;;
19253;SDS011;9761;50.926;5.330;2022-09-17T20:50:53;10.67;;;3.43;;
19253;SDS011;9761;50.926;5.330;2022-09-17T20:53:22;8.17;;;2.97;;
19253;SDS011;9761;50.926;5.330;2022-09-17T20:55:54;9.57;;;3.63;;
19253;SDS011;9761;50.926;5.330;2022-09-17T20:58:42;9.03;;;3.20;;
19253;SDS011;9761;50.926;5.330;2022-09-17T21:01:15;9.63;;;4.17;;
19253;SDS011;9761;50.926;5.330;2022-09-17T21:03:58;7.43;;;2.50;;
19253;SDS011;9761;50.926;5.330;2022-09-17T21:06:35;4.40;;;1.93;;
19253;SDS011;9761;50.926;5.330;2022-09-17T21:09:13;4.90;;;2.67;;
19253;SDS011;9761;50.926;5.330;2022-09-17T21:11:41;8.10;;;1.97;;
19253;SDS011;9761;50.926;5.330;2022-09-17T21:14:09;7.13;;;2.40;;
19253;SDS011;9761;50.926;5.330;2022-09-17T21:16:36;9.23;;;3.40;;
19253;SDS011;9761;50.926;5.330;2022-09-17T21:19:05;7.67;;;2.20;;
19253;SDS011;9761;50.926;5.330;2022-09-17T21:21:36;6.83;;;2.23;;
19253;SDS011;9761;50.926;5.330;2022-09-17T21:24:04;7.57;;;2.50;;
19253;SDS011;9761;50.926;5.330;2022-09-17T21:27:09;8.97;;;2.83;;
19253;SDS011;9761;50.926;5.330;2022-09-17T21:35:40;14.80;;;3.33;;
19253;SDS011;9761;50.926;5.330;2022-09-17T21:38:07;9.40;;;2.47;;
19253;SDS011;9761;50.926;5.330;2022-09-17T21:40:34;4.83;;;3.00;;
19253;SDS011;9761;50.926;5.330;2022-09-17T21:45:28;7.43;;;2.70;;
19253;SDS011;9761;50.926;5.330;2022-09-17T21:47:55;6.43;;;2.60;;
19253;SDS011;9761;50.926;5.330;2022-09-17T21:50:22;5.97;;;2.43;;
19253;SDS011;9761;50.926;5.330;2022-09-17T21:52:49;5.53;;;2.10;;
19253;SDS011;9761;50.926;5.330;2022-09-17T21:55:17;7.13;;;2.33;;
19253;SDS011;9761;50.926;5.330;2022-09-17T21:57:44;7.80;;;2.10;;
19253;SDS011;9761;50.926;5.330;2022-09-17T22:00:14;8.13;;;2.50;;
19253;SDS011;9761;50.926;5.330;2022-09-17T22:02:43;5.30;;;1.83;;
19253;SDS011;9761;50.926;5.330;2022-09-17T22:05:10;6.67;;;2.23;;
19253;SDS011;9761;50.926;5.330;2022-09-17T22:07:37;5.97;;;2.17;;
19253;SDS011;9761;50.926;5.330;2022-09-17T22:10:05;4.90;;;2.40;;
19253;SDS011;9761;50.926;5.330;2022-09-17T22:12:35;5.60;;;2.07;;
19253;SDS011;9761;50.926;5.330;2022-09-17T22:15:04;5.70;;;2.00;;
19253;SDS011;9761;50.926;5.330;2022-09-17T22:17:32;6.90;;;2.03;;
19253;SDS011;9761;50.926;5.330;2022-09-17T22:20:01;6.07;;;1.70;;
19253;SDS011;9761;50.926;5.330;2022-09-17T22:22:29;4.23;;;2.17;;
19253;SDS011;9761;50.926;5.330;2022-09-17T22:24:55;12.10;;;3.83;;
19253;SDS011;9761;50.926;5.330;2022-09-17T22:27:23;9.23;;;4.37;;
19253;SDS011;9761;50.926;5.330;2022-09-17T22:29:50;5.63;;;1.80;;
19253;SDS011;9761;50.926;5.330;2022-09-17T22:35:40;6.20;;;2.50;;
19253;SDS011;9761;50.926;5.330;2022-09-17T22:38:07;5.87;;;2.00;;
19253;SDS011;9761;50.926;5.330;2022-09-17T22:40:34;8.07;;;2.90;;
19253;SDS011;9761;50.926;5.330;2022-09-17T22:43:02;9.53;;;2.00;;
19253;SDS011;9761;50.926;5.330;2022-09-17T22:45:29;5.67;;;2.20;;
19253;SDS011;9761;50.926;5.330;2022-09-17T22:47:56;6.33;;;2.13;;
19253;SDS011;9761;50.926;5.330;2022-09-17T22:50:23;6.20;;;2.37;;
19253;SDS011;9761;50.926;5.330;2022-09-17T22:52:51;7.83;;;2.60;;
19253;SDS011;9761;50.926;5.330;2022-09-17T22:58:43;9.23;;;2.93;;
19253;SDS011;9761;50.926;5.330;2022-09-17T23:01:20;6.50;;;2.93;;
19253;SDS011;9761;50.926;5.330;2022-09-17T23:03:52;7.53;;;3.10;;
19253;SDS011;9761;50.926;5.330;2022-09-17T23:06:20;4.43;;;2.87;;
19253;SDS011;9761;50.926;5.330;2022-09-17T23:08:50;6.53;;;2.93;;
19253;SDS011;9761;50.926;5.330;2022-09-17T23:11:18;5.97;;;3.07;;
19253;SDS011;9761;50.926;5.330;2022-09-17T23:13:47;6.13;;;3.43;;
19253;SDS011;9761;50.926;5.330;2022-09-17T23:16:16;5.57;;;3.10;;
19253;SDS011;9761;50.926;5.330;2022-09-17T23:18:43;10.17;;;3.83;;
19253;SDS011;9761;50.926;5.330;2022-09-17T23:21:13;7.63;;;3.93;;
19253;SDS011;9761;50.926;5.330;2022-09-17T23:23:42;8.07;;;3.40;;
19253;SDS011;9761;50.926;5.330;2022-09-17T23:26:12;9.80;;;4.03;;